Time;durP1;ratioP1;P1;durP2;ratioP2;P2;SDS_P1;SDS_P2;PMS_P1;PMS_P2;Temp;Humidity;BMP_temperature;BMP_pressure;BME280_temperature;BME280_humidity;BME280_pressure;Samples;Min_cycle;Max_cycle;Signal;HPM_P1;HPM_P2
2023/01/19 00:01:57;;;;;;;20.67;10.90;;;-3.00;99.90;;;;;;5032781;28;20500;-67
2023/01/19 00:04:24;;;;;;;28.53;11.50;;;-3.10;99.90;;;;;;5033105;28;20512;-67
2023/01/19 00:06:50;;;;;;;20.00;10.80;;;-3.10;99.90;;;;;;5033022;28;20450;-67
2023/01/19 00:09:17;;;;;;;27.40;12.47;;;-3.00;99.90;;;;;;5032726;28;20512;-67
2023/01/19 00:11:45;;;;;;;21.97;11.77;;;-3.00;99.90;;;;;;5033163;28;20477;-70
2023/01/19 00:14:12;;;;;;;22.00;11.10;;;-3.00;99.90;;;;;;5032920;28;20513;-67
2023/01/19 00:16:38;;;;;;;23.97;11.13;;;-3.00;99.90;;;;;;5033095;28;20453;-67
2023/01/19 00:19:05;;;;;;;20.30;11.07;;;-2.90;99.90;;;;;;5023684;28;20489;-67
2023/01/19 00:21:32;;;;;;;28.13;11.20;;;-3.00;99.90;;;;;;5032786;28;20481;-67
2023/01/19 00:23:58;;;;;;;28.87;11.67;;;-3.10;99.90;;;;;;5026906;28;21203;-67
2023/01/19 00:26:25;;;;;;;22.90;11.73;;;-3.10;99.90;;;;;;5023421;28;20462;-67
2023/01/19 00:28:53;;;;;;;24.97;12.20;;;-3.10;99.90;;;;;;5030655;28;20857;-67
2023/01/19 00:31:20;;;;;;;23.93;11.43;;;-3.10;99.90;;;;;;5031579;28;20508;-67
2023/01/19 00:33:48;;;;;;;20.23;10.63;;;-3.10;99.90;;;;;;5031165;28;20536;-67
2023/01/19 00:36:14;;;;;;;22.50;11.27;;;-3.10;99.90;;;;;;5033010;28;20486;-67
2023/01/19 00:38:41;;;;;;;24.10;12.10;;;-3.20;99.90;;;;;;5032227;28;20489;-67
2023/01/19 00:41:08;;;;;;;24.53;11.07;;;-3.20;99.90;;;;;;5032738;28;20465;-67
2023/01/19 00:43:34;;;;;;;28.23;11.90;;;-3.20;99.90;;;;;;5031849;28;20457;-67
2023/01/19 00:46:02;;;;;;;20.47;11.80;;;-3.30;99.90;;;;;;5031611;28;20873;-66
2023/01/19 00:48:29;;;;;;;27.70;11.97;;;-3.30;99.90;;;;;;5027221;28;20207;-67
2023/01/19 00:50:56;;;;;;;19.77;10.63;;;-3.30;99.90;;;;;;5026122;28;20489;-67
2023/01/19 00:53:22;;;;;;;27.63;11.93;;;-3.30;99.90;;;;;;5025402;28;20458;-66
2023/01/19 00:55:49;;;;;;;18.27;10.33;;;-3.20;99.90;;;;;;5029227;28;20871;-67
2023/01/19 00:58:15;;;;;;;25.40;13.10;;;-3.20;99.90;;;;;;5028544;28;20533;-67
2023/01/19 01:00:43;;;;;;;24.50;11.97;;;-3.10;99.90;;;;;;5029847;28;20478;-67
2023/01/19 01:03:11;;;;;;;22.10;11.13;;;-3.10;99.90;;;;;;5031628;28;20531;-67
2023/01/19 01:05:40;;;;;;;26.50;12.83;;;-3.10;99.90;;;;;;5031813;28;20516;-67
2023/01/19 01:08:07;;;;;;;23.57;12.77;;;-3.10;99.90;;;;;;5023744;28;20957;-67
2023/01/19 01:10:33;;;;;;;24.83;12.70;;;-3.10;99.90;;;;;;5031860;28;20481;-66
2023/01/19 01:13:00;;;;;;;28.63;11.83;;;-3.20;99.90;;;;;;5021313;28;20458;-67
2023/01/19 01:15:28;;;;;;;28.00;11.37;;;-3.20;99.90;;;;;;5027331;28;20454;-67
2023/01/19 01:17:55;;;;;;;24.90;10.93;;;-3.20;99.90;;;;;;5031104;28;20516;-67
2023/01/19 01:20:26;;;;;;;22.47;11.90;;;-3.30;99.90;;;;;;5031099;28;20465;-67
2023/01/19 01:22:54;;;;;;;21.63;11.50;;;-3.30;99.90;;;;;;5031552;28;20494;-67
2023/01/19 01:25:23;;;;;;;23.37;12.50;;;-3.30;99.90;;;;;;5031604;28;20455;-67
2023/01/19 01:27:50;;;;;;;22.80;12.27;;;-3.30;99.90;;;;;;5030556;28;20449;-67
2023/01/19 01:30:16;;;;;;;19.47;12.60;;;-3.30;99.90;;;;;;5026834;28;20453;-67
2023/01/19 01:32:43;;;;;;;27.07;13.40;;;-3.30;99.90;;;;;;5024228;28;20869;-66
2023/01/19 01:35:11;;;;;;;27.60;12.73;;;-3.40;99.90;;;;;;5031226;28;20570;-67
2023/01/19 01:37:39;;;;;;;24.27;12.20;;;-3.40;99.90;;;;;;5027346;28;20459;-67
2023/01/19 01:40:08;;;;;;;22.53;13.07;;;-3.40;99.90;;;;;;5026742;28;20450;-67
2023/01/19 01:42:35;;;;;;;26.47;12.80;;;-3.30;99.90;;;;;;5031136;28;20454;-67
2023/01/19 01:45:04;;;;;;;24.60;12.63;;;-3.30;99.90;;;;;;5031287;28;20516;-67
2023/01/19 01:47:37;;;;;;;22.60;12.03;;;-3.20;99.90;;;;;;5031179;28;20559;-67
2023/01/19 01:50:08;;;;;;;22.20;12.53;;;-3.20;99.90;;;;;;5031129;28;20942;-67
2023/01/19 01:52:43;;;;;;;22.90;12.20;;;-3.10;99.90;;;;;;5030620;28;20454;-67
2023/01/19 01:55:10;;;;;;;19.67;11.90;;;-3.10;99.90;;;;;;5031454;28;20499;-67
2023/01/19 01:57:41;;;;;;;23.20;12.03;;;-3.10;99.90;;;;;;5022999;28;20484;-67
2023/01/19 02:00:10;;;;;;;22.60;14.00;;;-3.10;99.90;;;;;;5031019;28;20449;-67
2023/01/19 02:02:53;;;;;;;21.43;11.50;;;-3.00;99.90;;;;;;5027029;28;20872;-67
2023/01/19 02:05:24;;;;;;;23.93;12.07;;;-3.00;99.90;;;;;;5024661;28;20457;-67
2023/01/19 02:13:29;;;;;;;25.23;12.73;;;-2.90;99.90;;;;;;5031004;28;20461;-67
2023/01/19 02:15:57;;;;;;;22.57;12.60;;;-2.90;99.90;;;;;;5030205;28;20450;-67
2023/01/19 02:18:26;;;;;;;25.47;13.10;;;-2.90;99.90;;;;;;5029925;28;20500;-69
2023/01/19 02:21:06;;;;;;;22.43;11.90;;;-3.00;99.90;;;;;;5030472;28;20989;-66
2023/01/19 02:23:42;;;;;;;22.47;12.30;;;-3.00;99.90;;;;;;5031285;28;20457;-67
2023/01/19 02:26:11;;;;;;;29.40;12.17;;;-3.00;99.90;;;;;;5028818;28;20469;-67
2023/01/19 02:28:41;;;;;;;21.37;11.57;;;-3.00;99.90;;;;;;5024621;28;20450;-67
2023/01/19 02:31:09;;;;;;;25.37;12.37;;;-3.00;99.90;;;;;;5023246;28;21041;-67
2023/01/19 02:33:36;;;;;;;28.40;11.67;;;-3.10;99.90;;;;;;5024522;28;20454;-67
2023/01/19 02:36:04;;;;;;;23.13;12.30;;;-3.10;99.90;;;;;;5024950;28;21704;-67
2023/01/19 02:38:32;;;;;;;21.40;12.40;;;-3.10;99.90;;;;;;5025411;28;21060;-67
2023/01/19 02:41:02;;;;;;;20.43;11.07;;;-3.10;99.90;;;;;;5030222;28;20481;-67
2023/01/19 02:43:30;;;;;;;22.27;11.30;;;-2.80;99.90;;;;;;5030579;28;20458;-67
2023/01/19 02:45:57;;;;;;;27.53;13.10;;;-3.10;99.90;;;;;;5029860;28;20460;-67
2023/01/19 02:48:24;;;;;;;20.30;10.50;;;-3.20;99.90;;;;;;5030570;28;20454;-67
2023/01/19 02:50:54;;;;;;;22.07;11.17;;;-3.20;99.90;;;;;;5030622;28;20811;-67
2023/01/19 02:53:56;;;;;;;25.53;10.83;;;-3.20;99.90;;;;;;5030990;28;20453;-67
2023/01/19 02:56:52;;;;;;;26.60;11.43;;;-3.20;99.90;;;;;;5025184;28;20890;-67
2023/01/19 02:59:29;;;;;;;22.20;12.30;;;-3.20;99.90;;;;;;5004209;28;20543;-67
2023/01/19 03:02:14;;;;;;;22.40;10.60;;;-3.30;99.90;;;;;;5033741;28;20487;-67
2023/01/19 03:04:52;;;;;;;21.90;11.97;;;-3.40;99.90;;;;;;5030180;28;20449;-67
2023/01/19 03:07:29;;;;;;;20.60;10.83;;;-3.40;99.90;;;;;;5030577;28;20454;-67
2023/01/19 03:10:03;;;;;;;21.63;11.50;;;-3.40;99.90;;;;;;5032580;28;20450;-67
2023/01/19 03:12:40;;;;;;;16.20;10.50;;;-3.30;99.90;;;;;;5034313;28;20516;-67
2023/01/19 03:15:17;;;;;;;24.70;10.53;;;-3.30;99.90;;;;;;5031284;28;20453;-67
2023/01/19 03:17:47;;;;;;;20.00;9.97;;;-3.20;99.90;;;;;;5029525;28;20958;-67
2023/01/19 03:20:17;;;;;;;25.07;10.43;;;-3.20;99.90;;;;;;5025779;28;21095;-66
2023/01/19 03:22:45;;;;;;;18.53;9.83;;;-3.20;99.90;;;;;;5025991;28;20469;-67
2023/01/19 03:25:14;;;;;;;17.60;11.40;;;-3.20;99.90;;;;;;5029402;28;20862;-67
2023/01/19 03:27:43;;;;;;;21.63;11.07;;;-3.20;99.90;;;;;;5028284;28;20442;-67
2023/01/19 03:30:17;;;;;;;25.50;11.40;;;-3.30;99.90;;;;;;5032378;28;20442;-67
2023/01/19 03:32:49;;;;;;;20.40;10.40;;;-3.20;99.90;;;;;;5026486;28;20474;-67
2023/01/19 03:35:19;;;;;;;31.20;11.83;;;-3.30;99.90;;;;;;5033782;28;20500;-67
2023/01/19 03:37:50;;;;;;;19.20;11.13;;;-3.20;99.90;;;;;;5033618;28;20516;-67
2023/01/19 03:40:17;;;;;;;23.40;10.70;;;-3.30;99.90;;;;;;5030951;28;20493;-67
2023/01/19 03:42:44;;;;;;;18.40;10.43;;;-3.40;99.90;;;;;;5020750;28;20502;-67
2023/01/19 03:45:14;;;;;;;19.03;9.97;;;-3.40;99.90;;;;;;5026815;28;20461;-67
2023/01/19 03:47:41;;;;;;;19.03;10.60;;;-3.40;99.90;;;;;;5030964;28;20487;-67
2023/01/19 03:50:13;;;;;;;15.47;9.97;;;-3.50;99.90;;;;;;5024488;28;20512;-67
2023/01/19 03:52:40;;;;;;;20.13;11.03;;;-3.40;99.90;;;;;;5033043;28;20512;-67
2023/01/19 03:55:08;;;;;;;18.80;10.80;;;-3.40;99.90;;;;;;5033318;28;20450;-67
2023/01/19 03:57:35;;;;;;;21.90;11.00;;;-3.50;99.90;;;;;;5033123;28;20544;-67
2023/01/19 04:00:02;;;;;;;26.60;10.50;;;-3.40;99.90;;;;;;5032111;28;20551;-66
2023/01/19 04:02:30;;;;;;;19.57;11.90;;;-3.50;99.90;;;;;;5032980;28;20831;-67
2023/01/19 04:04:56;;;;;;;17.60;10.40;;;-3.40;99.90;;;;;;5032893;28;20461;-67
2023/01/19 04:07:23;;;;;;;21.20;11.40;;;-3.40;99.90;;;;;;5030963;28;20532;-67
2023/01/19 04:09:49;;;;;;;20.73;11.27;;;-3.40;99.90;;;;;;5023139;28;20524;-66
2023/01/19 04:12:16;;;;;;;21.67;10.93;;;-3.40;99.90;;;;;;5025570;28;20515;-67
2023/01/19 04:14:43;;;;;;;21.13;11.37;;;-3.40;99.90;;;;;;5030264;28;20458;-67
2023/01/19 04:17:09;;;;;;;19.50;11.27;;;-3.40;99.90;;;;;;5031435;28;20501;-67
2023/01/19 04:19:37;;;;;;;17.90;10.30;;;-3.40;99.90;;;;;;5032685;28;20485;-67
2023/01/19 04:22:04;;;;;;;19.37;10.60;;;-3.40;99.90;;;;;;5032758;28;20528;-67
2023/01/19 04:24:30;;;;;;;18.70;10.70;;;-3.40;99.90;;;;;;5033023;28;20472;-67
2023/01/19 04:26:57;;;;;;;16.27;10.70;;;-3.40;99.90;;;;;;5032198;28;20519;-67
2023/01/19 04:29:24;;;;;;;22.90;10.90;;;-3.30;99.90;;;;;;5032283;28;20458;-67
2023/01/19 04:31:50;;;;;;;20.97;11.67;;;-3.40;99.90;;;;;;5032698;28;21040;-67
2023/01/19 04:34:17;;;;;;;18.40;10.60;;;-3.30;99.90;;;;;;5030248;28;20442;-67
2023/01/19 04:36:45;;;;;;;16.50;10.20;;;-3.30;99.90;;;;;;5028359;28;20450;-67
2023/01/19 04:39:12;;;;;;;24.67;10.43;;;-3.30;99.90;;;;;;5026099;28;20919;-67
2023/01/19 04:41:39;;;;;;;18.10;10.50;;;-3.40;99.90;;;;;;5021892;28;20474;-67
2023/01/19 04:44:05;;;;;;;19.13;10.40;;;-3.30;99.90;;;;;;5027668;28;21005;-67
2023/01/19 04:46:32;;;;;;;19.97;10.43;;;-3.30;99.90;;;;;;5032345;28;20880;-67
2023/01/19 04:48:59;;;;;;;19.77;10.63;;;-3.30;99.90;;;;;;5031815;28;20523;-67
2023/01/19 04:51:27;;;;;;;23.33;11.20;;;-3.30;99.90;;;;;;5032078;28;20852;-67
2023/01/19 04:53:56;;;;;;;20.73;10.83;;;-3.30;99.90;;;;;;5032159;28;20450;-67
2023/01/19 04:56:23;;;;;;;17.57;10.53;;;-3.20;99.90;;;;;;5030294;28;20472;-67
2023/01/19 04:58:49;;;;;;;16.00;9.50;;;-3.10;99.90;;;;;;5027447;28;20473;-67
2023/01/19 05:01:16;;;;;;;22.37;11.13;;;-3.20;99.90;;;;;;5026575;28;20481;-68
2023/01/19 05:03:42;;;;;;;17.37;9.37;;;-3.20;99.90;;;;;;5019550;28;20950;-67
2023/01/19 05:06:09;;;;;;;20.83;10.20;;;-3.10;99.90;;;;;;5031169;28;20500;-67
2023/01/19 05:08:36;;;;;;;20.67;12.67;;;-3.20;99.90;;;;;;5030375;28;20492;-67
2023/01/19 05:11:04;;;;;;;22.23;10.47;;;-3.10;99.90;;;;;;5027112;28;20478;-68
2023/01/19 05:13:32;;;;;;;19.53;10.67;;;-3.10;99.90;;;;;;5031604;28;20504;-68
2023/01/19 05:15:59;;;;;;;24.00;9.93;;;-3.00;99.90;;;;;;5031931;28;20493;-68
2023/01/19 05:18:25;;;;;;;16.43;9.20;;;-3.10;99.90;;;;;;5030521;28;20466;-68
2023/01/19 05:20:52;;;;;;;16.50;9.90;;;-3.10;99.90;;;;;;5024503;28;21063;-68
2023/01/19 05:23:18;;;;;;;18.07;10.43;;;-3.20;99.90;;;;;;5022758;28;20453;-67
2023/01/19 05:25:46;;;;;;;20.50;10.20;;;-3.20;99.90;;;;;;5031977;28;20512;-67
2023/01/19 05:28:15;;;;;;;14.77;10.43;;;-3.20;99.90;;;;;;5025850;28;20512;-68
2023/01/19 05:30:42;;;;;;;25.33;10.17;;;-3.30;99.90;;;;;;5027623;28;20557;-65
2023/01/19 05:33:08;;;;;;;18.00;10.27;;;-3.20;99.90;;;;;;5029366;28;20453;-66
2023/01/19 05:35:35;;;;;;;21.50;10.00;;;-3.20;99.90;;;;;;5031081;28;20453;-66
2023/01/19 05:38:02;;;;;;;20.47;10.30;;;-3.20;99.90;;;;;;5030590;28;20454;-66
2023/01/19 05:40:28;;;;;;;19.00;10.37;;;-3.20;99.90;;;;;;5031650;28;20501;-66
2023/01/19 05:42:59;;;;;;;15.03;9.10;;;-3.20;99.90;;;;;;5030950;28;20458;-66
2023/01/19 05:45:27;;;;;;;14.70;9.90;;;-3.30;99.90;;;;;;5030128;28;20449;-67
2023/01/19 05:47:54;;;;;;;20.47;11.00;;;-3.20;99.90;;;;;;5027488;28;20456;-67
2023/01/19 05:50:20;;;;;;;17.90;10.70;;;-3.20;99.90;;;;;;5022940;28;20450;-66
2023/01/19 05:52:47;;;;;;;21.87;10.67;;;-3.20;99.90;;;;;;5020792;28;20509;-67
2023/01/19 05:55:15;;;;;;;18.93;10.33;;;-3.20;99.90;;;;;;5028666;28;20457;-67
2023/01/19 05:57:42;;;;;;;22.13;10.57;;;-3.10;99.90;;;;;;5029345;28;20462;-67
2023/01/19 06:00:10;;;;;;;17.33;9.63;;;-3.00;99.90;;;;;;5030804;28;20860;-67
2023/01/19 06:02:38;;;;;;;19.13;10.80;;;-3.10;99.90;;;;;;5030964;28;20508;-66
2023/01/19 06:05:05;;;;;;;18.03;10.77;;;-3.00;99.90;;;;;;5029941;28;20496;-66
2023/01/19 06:07:32;;;;;;;23.23;10.57;;;-3.00;99.90;;;;;;5030457;28;20457;-69
2023/01/19 06:09:59;;;;;;;18.57;9.80;;;-3.00;99.90;;;;;;5025770;28;20446;-68
2023/01/19 06:12:25;;;;;;;20.60;11.53;;;-3.00;99.90;;;;;;5025437;28;20477;-66
2023/01/19 06:14:52;;;;;;;19.70;9.67;;;-3.00;99.90;;;;;;5026279;28;21003;-67
2023/01/19 06:17:19;;;;;;;17.40;10.03;;;-3.00;99.90;;;;;;5021907;28;21025;-67
2023/01/19 06:19:47;;;;;;;23.40;11.30;;;-3.00;99.90;;;;;;5025965;28;20511;-67
2023/01/19 06:22:13;;;;;;;21.80;11.70;;;-3.00;99.90;;;;;;5030449;28;21051;-67
2023/01/19 06:24:40;;;;;;;19.50;10.80;;;-2.90;99.90;;;;;;5030721;28;20453;-67
2023/01/19 06:27:07;;;;;;;29.63;12.17;;;-2.90;99.90;;;;;;5027678;28;20453;-67
2023/01/19 06:29:33;;;;;;;22.80;12.70;;;-2.90;99.90;;;;;;5023698;28;20458;-67
2023/01/19 06:32:00;;;;;;;21.43;10.90;;;-2.90;99.90;;;;;;5028045;28;20477;-67
2023/01/19 06:34:27;;;;;;;31.13;11.60;;;-2.90;99.90;;;;;;5025732;28;20454;-67
2023/01/19 06:36:55;;;;;;;17.30;11.93;;;-2.90;99.90;;;;;;5024568;28;20803;-67
2023/01/19 06:39:22;;;;;;;23.50;12.33;;;-2.90;99.90;;;;;;5026840;28;20585;-66
2023/01/19 06:41:49;;;;;;;18.60;11.37;;;-2.80;99.90;;;;;;5017170;28;21045;-67
2023/01/19 06:44:15;;;;;;;21.87;12.60;;;-2.90;99.90;;;;;;5017448;28;21008;-67
2023/01/19 06:46:42;;;;;;;21.83;12.47;;;-2.90;99.90;;;;;;5014883;28;20490;-67
2023/01/19 06:49:09;;;;;;;24.57;12.97;;;-2.90;99.90;;;;;;5023198;28;20470;-67
2023/01/19 06:51:35;;;;;;;22.93;11.30;;;-3.00;99.90;;;;;;5021431;28;20470;-67
2023/01/19 06:54:04;;;;;;;16.77;10.87;;;-3.00;99.90;;;;;;5018262;28;20856;-66
2023/01/19 06:56:31;;;;;;;17.60;11.20;;;-3.00;99.90;;;;;;5014878;28;20513;-67
2023/01/19 06:58:57;;;;;;;22.27;12.57;;;-3.00;99.90;;;;;;5014481;28;20447;-66
2023/01/19 07:01:24;;;;;;;27.50;11.87;;;-3.00;99.90;;;;;;5014592;28;20990;-68
2023/01/19 07:03:50;;;;;;;21.73;12.87;;;-3.10;99.90;;;;;;5017311;28;20458;-68
2023/01/19 07:06:17;;;;;;;25.40;12.70;;;-3.10;99.90;;;;;;5014696;28;20451;-68
2023/01/19 07:08:44;;;;;;;25.77;13.50;;;-3.00;99.90;;;;;;5018185;28;20490;-68
2023/01/19 07:11:13;;;;;;;19.20;12.83;;;-3.00;99.90;;;;;;5018060;28;20985;-68
2023/01/19 07:13:41;;;;;;;21.60;11.63;;;-2.90;99.90;;;;;;5023452;28;20633;-68
2023/01/19 07:16:10;;;;;;;22.10;11.63;;;-2.90;99.90;;;;;;5019773;28;20512;-68
2023/01/19 07:18:38;;;;;;;23.30;11.97;;;-2.80;99.90;;;;;;5022167;28;20457;-68
2023/01/19 07:21:05;;;;;;;19.23;10.80;;;-2.70;99.90;;;;;;5016663;28;20494;-68
2023/01/19 07:23:31;;;;;;;15.63;9.80;;;-2.70;99.90;;;;;;5020685;28;20462;-68
2023/01/19 07:26:00;;;;;;;18.97;10.90;;;-2.60;99.90;;;;;;5014237;28;20528;-68
2023/01/19 07:28:28;;;;;;;18.43;11.47;;;-2.50;99.90;;;;;;5017196;28;20553;-68
2023/01/19 07:30:55;;;;;;;21.17;12.13;;;-2.40;99.90;;;;;;5017223;28;20520;-68
2023/01/19 07:33:24;;;;;;;17.17;10.50;;;-2.20;99.90;;;;;;5014945;28;20451;-67
2023/01/19 07:35:51;;;;;;;22.60;11.73;;;-2.20;99.90;;;;;;5015642;28;20463;-68
2023/01/19 07:38:19;;;;;;;19.57;11.13;;;-2.10;99.90;;;;;;5013803;28;20455;-68
2023/01/19 07:40:46;;;;;;;22.60;12.03;;;-2.00;99.90;;;;;;5013118;28;20502;-68
2023/01/19 07:43:13;;;;;;;27.63;13.30;;;-1.90;99.90;;;;;;5018920;28;20454;-69
2023/01/19 07:45:43;;;;;;;38.07;14.60;;;-1.80;99.90;;;;;;5025114;28;20515;-68
2023/01/19 07:48:10;;;;;;;32.60;14.50;;;-1.70;99.90;;;;;;5015370;28;20463;-67
2023/01/19 07:50:37;;;;;;;20.23;12.47;;;-1.60;99.90;;;;;;5018485;28;20508;-67
2023/01/19 07:53:10;;;;;;;19.00;11.43;;;-1.40;99.90;;;;;;5016149;28;20512;-66
2023/01/19 07:55:37;;;;;;;22.80;12.23;;;-1.30;99.90;;;;;;5020375;28;20473;-68
2023/01/19 07:58:06;;;;;;;25.87;13.77;;;-1.10;99.90;;;;;;5017055;28;20467;-67
2023/01/19 08:00:33;;;;;;;23.83;11.90;;;-0.90;99.90;;;;;;5028588;28;21012;-67
2023/01/19 08:03:01;;;;;;;25.10;11.60;;;-1.00;99.90;;;;;;5024787;28;20561;-67
2023/01/19 08:05:28;;;;;;;22.87;12.10;;;-0.90;99.90;;;;;;5013646;28;20451;-67
2023/01/19 08:07:56;;;;;;;20.90;11.90;;;-0.80;99.90;;;;;;5022806;28;20458;-68
2023/01/19 08:10:25;;;;;;;17.83;11.00;;;-0.80;99.90;;;;;;5013507;28;20447;-68
2023/01/19 08:12:52;;;;;;;19.57;10.00;;;-0.70;99.90;;;;;;5025255;28;20454;-67
2023/01/19 08:15:21;;;;;;;17.93;11.20;;;-0.70;99.90;;;;;;5016942;28;20451;-68
2023/01/19 08:17:55;;;;;;;19.17;11.00;;;-0.60;99.90;;;;;;5024591;28;20455;-68
2023/01/19 08:20:23;;;;;;;17.10;10.47;;;-0.50;99.90;;;;;;5012941;28;20497;-67
2023/01/19 08:22:49;;;;;;;19.50;10.90;;;-0.50;99.90;;;;;;5017932;28;20454;-67
2023/01/19 08:25:16;;;;;;;22.23;11.10;;;-0.40;99.90;;;;;;5019224;28;20489;-67
2023/01/19 08:27:43;;;;;;;29.17;13.90;;;-0.30;99.90;;;;;;5017023;28;20865;-68
2023/01/19 08:30:11;;;;;;;22.17;11.23;;;-0.10;99.90;;;;;;5017488;28;20477;-68
2023/01/19 08:32:38;;;;;;;14.73;10.63;;;0.80;99.90;;;;;;5020184;28;20992;-68
2023/01/19 08:35:06;;;;;;;18.87;11.13;;;1.60;99.90;;;;;;5012677;28;20450;-68
2023/01/19 08:37:34;;;;;;;18.77;10.80;;;2.50;99.90;;;;;;5012360;28;20490;-68
2023/01/19 08:40:00;;;;;;;15.57;10.17;;;3.20;99.90;;;;;;5013056;28;20463;-68
2023/01/19 08:42:27;;;;;;;18.63;10.00;;;3.50;99.90;;;;;;5012924;28;20474;-68
2023/01/19 08:44:54;;;;;;;15.63;10.37;;;3.40;99.90;;;;;;5017506;28;20525;-68
2023/01/19 08:47:20;;;;;;;16.40;10.53;;;3.10;99.90;;;;;;5019358;28;20458;-68
2023/01/19 08:49:47;;;;;;;18.77;10.10;;;2.90;99.90;;;;;;5021268;28;20505;-68
2023/01/19 08:52:14;;;;;;;16.53;10.13;;;2.60;99.90;;;;;;5018353;28;20525;-68
2023/01/19 08:54:41;;;;;;;14.80;9.80;;;2.40;99.90;;;;;;5018513;28;20454;-68
2023/01/19 08:57:08;;;;;;;15.00;10.23;;;2.30;99.90;;;;;;5014165;28;20485;-68
2023/01/19 08:59:35;;;;;;;14.50;8.30;;;2.10;99.90;;;;;;5012275;28;20451;-68
2023/01/19 09:02:02;;;;;;;14.80;9.47;;;2.10;99.90;;;;;;5023935;28;20519;-68
2023/01/19 09:04:29;;;;;;;15.47;8.90;;;2.10;99.90;;;;;;5019410;28;20946;-68
2023/01/19 09:06:55;;;;;;;16.80;10.07;;;2.20;99.90;;;;;;5017088;28;20938;-68
2023/01/19 09:09:22;;;;;;;14.67;8.70;;;2.20;99.90;;;;;;5020319;28;20459;-68
2023/01/19 09:11:50;;;;;;;12.70;7.07;;;2.10;99.90;;;;;;5012525;28;20475;-68
2023/01/19 09:14:16;;;;;;;9.37;6.00;;;1.90;99.90;;;;;;5013675;28;20458;-68
2023/01/19 09:16:43;;;;;;;13.07;7.50;;;1.70;99.90;;;;;;5024595;28;20458;-68
2023/01/19 09:19:10;;;;;;;12.17;7.53;;;1.60;99.90;;;;;;5012103;28;20525;-68
2023/01/19 09:21:36;;;;;;;12.27;7.70;;;1.50;99.90;;;;;;5012160;28;20494;-68
2023/01/19 09:24:03;;;;;;;12.80;8.17;;;1.50;99.90;;;;;;5011844;28;20502;-68
2023/01/19 09:26:30;;;;;;;9.60;7.27;;;1.40;99.90;;;;;;5012251;28;20455;-68
2023/01/19 09:28:59;;;;;;;13.33;7.37;;;1.40;99.90;;;;;;5018610;28;20879;-68
2023/01/19 09:31:25;;;;;;;16.80;8.30;;;1.40;99.90;;;;;;5019006;28;20528;-66
2023/01/19 09:33:52;;;;;;;10.17;6.80;;;1.30;99.90;;;;;;5015264;28;20512;-68
2023/01/19 09:36:18;;;;;;;9.70;7.07;;;1.30;99.90;;;;;;5018408;28;20451;-67
2023/01/19 09:38:45;;;;;;;13.00;7.57;;;1.30;99.90;;;;;;5018141;28;20454;-67
2023/01/19 09:41:18;;;;;;;11.73;7.67;;;1.20;99.90;;;;;;5023395;28;20489;-67
2023/01/19 09:43:50;;;;;;;19.10;8.20;;;1.20;99.90;;;;;;5020477;28;20446;-67
2023/01/19 09:46:23;;;;;;;13.17;7.20;;;1.20;99.90;;;;;;5019014;28;20458;-67
2023/01/19 09:48:52;;;;;;;13.73;7.30;;;1.20;99.90;;;;;;5020005;28;20954;-67
2023/01/19 09:51:21;;;;;;;10.97;7.30;;;1.20;99.90;;;;;;5020208;28;20462;-67
2023/01/19 09:53:56;;;;;;;11.60;6.77;;;1.20;99.90;;;;;;5016588;28;20454;-67
2023/01/19 09:56:23;;;;;;;11.90;6.83;;;1.20;99.90;;;;;;5017660;28;20450;-67
2023/01/19 09:58:51;;;;;;;10.27;6.50;;;1.10;99.90;;;;;;5011619;28;20855;-67
2023/01/19 10:01:37;;;;;;;15.93;7.17;;;1.10;99.90;;;;;;5019149;28;20494;-66
2023/01/19 10:04:27;;;;;;;17.90;7.27;;;1.10;99.90;;;;;;5023664;28;20457;-67
2023/01/19 10:07:03;;;;;;;8.60;6.50;;;1.00;99.90;;;;;;5011505;28;20508;-66
2023/01/19 10:09:33;;;;;;;12.30;6.27;;;1.00;99.90;;;;;;5015478;28;20503;-67
2023/01/19 10:12:08;;;;;;;14.37;6.90;;;0.90;99.90;;;;;;5014181;28;20524;-67
2023/01/19 10:14:42;;;;;;;10.03;6.60;;;0.90;99.90;;;;;;5014447;28;20450;-67
2023/01/19 10:17:17;;;;;;;11.23;6.27;;;0.90;99.90;;;;;;5020386;28;20521;-66
2023/01/19 10:19:47;;;;;;;14.67;7.20;;;0.90;99.90;;;;;;5011315;28;20870;-67
2023/01/19 10:22:20;;;;;;;9.10;6.30;;;0.90;99.90;;;;;;5025740;28;20497;-67
2023/01/19 10:24:51;;;;;;;11.67;6.93;;;0.90;99.90;;;;;;5011019;28;20820;-67
2023/01/19 10:27:20;;;;;;;14.57;6.90;;;0.80;99.90;;;;;;5012734;28;20494;-66
2023/01/19 10:29:47;;;;;;;14.30;5.83;;;1.00;99.90;;;;;;5015172;28;20494;-67
2023/01/19 10:32:18;;;;;;;11.80;6.90;;;0.90;99.90;;;;;;5019400;28;20974;-67
2023/01/19 10:34:45;;;;;;;10.60;6.50;;;0.90;99.90;;;;;;5015824;28;20531;-67
2023/01/19 10:37:20;;;;;;;9.50;6.43;;;0.90;99.90;;;;;;5012470;28;20505;-67
2023/01/19 10:39:53;;;;;;;11.00;6.77;;;0.90;99.90;;;;;;5013303;28;20450;-68
2023/01/19 10:42:20;;;;;;;11.27;6.90;;;1.00;99.90;;;;;;5013303;28;20553;-68
2023/01/19 10:44:47;;;;;;;15.23;7.90;;;1.00;99.90;;;;;;5015351;28;20536;-67
2023/01/19 10:47:17;;;;;;;11.40;6.20;;;1.10;99.90;;;;;;5017747;28;20459;-67
2023/01/19 10:49:45;;;;;;;8.50;6.00;;;1.10;99.90;;;;;;5019604;28;20454;-67
2023/01/19 10:52:23;;;;;;;11.37;7.50;;;1.30;99.90;;;;;;5017605;28;20987;-67
2023/01/19 10:54:51;;;;;;;12.63;6.70;;;1.40;99.90;;;;;;5017106;28;20511;-68
2023/01/19 10:57:27;;;;;;;9.77;6.77;;;1.60;99.90;;;;;;5011602;28;22137;-68
2023/01/19 10:59:54;;;;;;;8.97;6.20;;;1.50;99.90;;;;;;5018803;28;20515;-67
2023/01/19 11:02:25;;;;;;;8.60;5.30;;;1.60;99.90;;;;;;5022686;28;20491;-68
2023/01/19 11:04:53;;;;;;;13.03;6.00;;;1.60;99.90;;;;;;5011568;28;20454;-68
2023/01/19 11:07:22;;;;;;;9.73;5.33;;;1.70;99.90;;;;;;5016060;28;20491;-68
2023/01/19 11:09:50;;;;;;;12.53;6.23;;;1.70;99.90;;;;;;5018112;28;20449;-68
2023/01/19 11:12:22;;;;;;;7.10;5.60;;;1.80;99.90;;;;;;5014128;28;20886;-68
2023/01/19 11:14:50;;;;;;;7.30;5.20;;;1.80;99.90;;;;;;5018010;28;20515;-67
2023/01/19 11:17:21;;;;;;;8.17;5.50;;;1.80;99.90;;;;;;5022113;28;20877;-67
2023/01/19 11:19:58;;;;;;;8.67;5.67;;;1.90;99.90;;;;;;5022748;28;20458;-67
2023/01/19 11:22:28;;;;;;;6.80;5.23;;;1.90;99.90;;;;;;5014264;28;20494;-68
2023/01/19 11:24:58;;;;;;;12.07;5.03;;;1.90;99.90;;;;;;5018062;28;21022;-68
2023/01/19 11:27:26;;;;;;;10.73;5.10;;;1.90;99.90;;;;;;5014057;28;21020;-68
2023/01/19 11:30:00;;;;;;;8.17;5.40;;;1.90;99.90;;;;;;5020341;28;20866;-68
2023/01/19 11:32:27;;;;;;;9.63;5.73;;;1.90;99.90;;;;;;5022822;28;20474;-68
2023/01/19 11:34:55;;;;;;;13.03;5.97;;;2.00;99.90;;;;;;5029304;28;20946;-68
2023/01/19 11:37:28;;;;;;;10.60;5.63;;;2.00;99.90;;;;;;5013571;28;20454;-67
2023/01/19 11:39:57;;;;;;;7.03;4.93;;;1.90;99.90;;;;;;5022074;28;20499;-67
2023/01/19 11:42:25;;;;;;;8.13;4.63;;;1.90;99.90;;;;;;5022049;28;20497;-68
2023/01/19 11:45:00;;;;;;;7.47;5.00;;;1.90;99.90;;;;;;5019497;28;20541;-69
2023/01/19 11:47:30;;;;;;;8.23;5.13;;;1.90;99.90;;;;;;5020823;28;20458;-68
2023/01/19 11:50:04;;;;;;;7.07;5.33;;;1.90;99.90;;;;;;5021639;28;20476;-69
2023/01/19 11:52:34;;;;;;;11.67;6.83;;;1.90;99.90;;;;;;5021498;28;20521;-68
2023/01/19 11:55:06;;;;;;;9.43;5.60;;;1.90;99.90;;;;;;5029868;28;20481;-68
2023/01/19 11:57:33;;;;;;;6.57;4.93;;;1.90;99.90;;;;;;5013704;28;20509;-68
2023/01/19 12:00:04;;;;;;;9.50;5.20;;;1.90;99.90;;;;;;5013277;28;20458;-68
2023/01/19 12:02:44;;;;;;;5.40;4.70;;;1.80;99.90;;;;;;5013481;28;20998;-68
2023/01/19 12:05:16;;;;;;;9.23;5.90;;;1.90;99.90;;;;;;5013875;28;20459;-68
2023/01/19 12:07:45;;;;;;;5.17;4.67;;;1.80;99.90;;;;;;5013634;28;20462;-68
2023/01/19 12:10:23;;;;;;;11.97;5.60;;;1.80;99.90;;;;;;5017206;28;20453;-68
2023/01/19 12:12:51;;;;;;;6.20;4.80;;;1.80;99.90;;;;;;5013837;28;20458;-69
2023/01/19 12:15:25;;;;;;;5.17;4.67;;;1.80;99.90;;;;;;5017329;28;21666;-68
2023/01/19 12:17:57;;;;;;;7.90;5.37;;;1.80;99.90;;;;;;5013199;28;20459;-68
2023/01/19 12:20:30;;;;;;;7.10;5.30;;;1.80;99.90;;;;;;5018978;28;21250;-66
2023/01/19 12:23:03;;;;;;;9.90;5.30;;;1.80;99.90;;;;;;5012743;28;20609;-67
2023/01/19 12:25:41;;;;;;;7.03;5.43;;;1.80;99.90;;;;;;5019276;28;20935;-67
2023/01/19 12:28:12;;;;;;;8.50;5.87;;;1.70;99.90;;;;;;5011797;28;20489;-67
2023/01/19 12:30:39;;;;;;;8.13;5.77;;;1.70;99.90;;;;;;5025358;28;20528;-66
2023/01/19 12:33:22;;;;;;;8.60;5.67;;;1.60;99.90;;;;;;5021504;28;20853;-66
2023/01/19 12:35:59;;;;;;;10.93;5.90;;;1.60;99.90;;;;;;5012969;28;20825;-66
2023/01/19 12:38:48;;;;;;;9.40;5.67;;;1.60;99.90;;;;;;5020029;28;20849;-67
2023/01/19 12:41:24;;;;;;;9.03;5.93;;;1.60;99.90;;;;;;5012508;28;20544;-66
2023/01/19 12:44:29;;;;;;;7.40;5.33;;;1.60;99.90;;;;;;5016334;28;20459;-66
2023/01/19 12:47:02;;;;;;;11.83;6.83;;;1.60;99.90;;;;;;5009253;28;20971;-66
2023/01/19 12:49:31;;;;;;;8.33;5.77;;;1.60;99.90;;;;;;5012978;28;20789;-67
2023/01/19 12:52:19;;;;;;;10.80;6.30;;;1.60;99.90;;;;;;5020770;28;20467;-66